Victor Arango

Chefscout - Deportivo Tachira
23 Apr 2028
Sonntag
Verarbeitung

Persönlichkeit

Anpassungsfähigkeit (10) Ehrgeiz (11) Kontroverse (16) Loyalität (18) Druck (12) Professionalität (6) Fairness (18) Temperament (12)

Profil

Trainerstil Demokratisch
Lizenz Kontinentale A
Entschlossenheit 12
Menschenführung 12
Motivation 10
Disziplin 8
Arbeitszufriedenheit
69%
Ermüdung
0%
Rolle Chefscout
Gehalt 22.7K p/W
Vertrag 14.03.2030

Leistung

Verhalten Gut
Trainingseffektivität
34%
Spielerentwicklung
20%
Verletzungsprävention
45%
Taktische Umsetzung
25%

Letzte Ereignisse

Nahm an einer Scouting-Besprechung teil jetzt
Empfahl ein Transferziel jetzt
Empfahl ein Transferziel jetzt
Empfahl ein Transferziel jetzt
Nahm an einer Scouting-Besprechung teil jetzt
Nahm an einer Scouting-Besprechung teil 7T her
Nahm an einer Scouting-Besprechung teil 7T her
Nahm an einer Scouting-Besprechung teil 7T her

Aktuell beobachtet

113
Spieler Verein Status Fähigkeit Vertrauen Beobachtet Zuletzt beobachtet Letzte Stimme
Rafael Moreno Atletico Venezuela Verloren 102 / 123 79% 1 27.12.2027 -
David Ferraresi Zamora Verloren 88 / 95 79% 1 20.12.2027 -
Isaí Valladares Zamora Aktiv 99 / 102 79% 1 13.12.2027 Befürworten
Ilja Zhbanov Cobresal Verhandlung 90 / 94 66% 1 01.12.2027 Befürworten
Luciano Gondou Chelsea Aktiv 127 / 128 67% 1 01.12.2027 Befürworten
Agustín De la Cuesta Racing Aktiv 114 / 114 40% 3 09.11.2027 -
Gideon Manaseh Ikorodu City Aktiv 88 / 94 40% 1 09.11.2027 -
Agustín Medina Lanús Aktiv 122 / 125 40% 1 09.11.2027 -
Matías Canedo Rampla Juniors Aktiv 85 / 93 40% 4 05.11.2027 -
Jon Esenga IF Elfsborg Aktiv 96 / 96 40% 1 05.11.2027 -
Mohamed Moussa Koïta Mathare United Aktiv 94 / 107 40% 2 03.11.2027 -
Marco Morigi Caracas Aktiv 92 / 87 40% 1 03.11.2027 -
Yury Oyarzo Racing Aktiv 87 / 109 40% 2 02.11.2027 -
Jorge Moreno Athletic Bilbao Aktiv 118 / 118 40% 1 02.11.2027 -
Benito Paklayan Alvarado Aktiv 80 / 91 40% 1 02.11.2027 -
Lucas Camejo River Plate Aktiv 85 / 96 40% 2 01.11.2027 Mehr Infos nötig
Josh Nichols Oldham Athletic Aktiv 120 / 131 40% 1 01.11.2027 Mehr Infos nötig
Mirza Ćatović VfB Stuttgart Aktiv 121 / 127 40% 1 01.11.2027 Mehr Infos nötig
Alejandro Almaraz NK Celje Aktiv 113 / 127 40% 2 20.10.2027 -
Adrian Skogmar Malmo FF Aktiv 107 / 121 40% 1 20.10.2027 -
Sebastián Caballero Barranquilla Aktiv 91 / 88 40% 1 17.10.2027 -
Zahir Ibarra Defensa y Justicia Aktiv 102 / 107 40% 2 16.10.2027 -
Nazareno Roselli Defensa y Justicia Aktiv 112 / 117 40% 1 16.10.2027 -
Ángel Aguayo Sol de America Aktiv 94 / 107 40% 2 15.10.2027 -
Isaías Silva Miramar Misiones Aktiv 84 / 87 40% 2 14.10.2027 -
Ulises Giménez River Plate Aktiv 116 / 123 40% 1 14.10.2027 -
Milan Roki Cobresal Aktiv 75 / 82 40% 2 12.10.2027 -
Agustín Obregón River Plate Aktiv 107 / 118 40% 2 12.10.2027 -
Máximo Munarriz San Telmo Aktiv 95 / 103 40% 1 12.10.2027 -
Kevin Otiende Nairobi United Aktiv 63 / 61 40% 2 11.10.2027 -
Juan Manuel Villalba Tigre Aktiv 118 / 120 40% 1 11.10.2027 -
Halam Loboa Sevilla Aktiv 129 / 130 40% 1 10.10.2027 -
Pedro Soma San Diego Football Club Aktiv 106 / 112 40% 1 10.10.2027 -
Óscar Hinojosa Metropolitanos Aktiv 87 / 90 40% 2 08.10.2027 -
Godswill Kenu Bayelsa United Aktiv 68 / 83 40% 2 08.10.2027 -
Joel Ezra Enyimba Aktiv 90 / 106 40% 2 05.10.2027 -
Jan Cedilnik Chikhura Aktiv 80 / 95 40% 1 05.10.2027 -
Ignacio Fernández Boston River Aktiv 94 / 107 40% 1 04.10.2027 -
Joelson Gamarra General Caballero Aktiv 75 / 77 40% 1 18.09.2027 -
Tiago Gordillo San Miguel Aktiv 82 / 88 40% 1 17.09.2027 -
Juan Camilo Córdoba Deportivo Pereira Aktiv 83 / 99 40% 1 16.09.2027 -
José Cavadia Aguilas Doradas Aktiv 105 / 109 40% 1 14.09.2027 -
Hian Rincón Once Caldas Aktiv 83 / 100 40% 1 12.09.2027 -
Jackson Imbiakha Muranga Seal Aktiv 83 / 85 40% 1 12.09.2027 -
Mauro Carrizo Atlético Tucumán Aktiv 102 / 110 40% 1 12.09.2027 -
Onyeuche Ujunwa Ikorodu City Aktiv 90 / 92 40% 1 10.09.2027 -
Ivan Giraldo Valencia Aktiv 130 / 135 40% 1 09.09.2027 -
Francisco Machis Llaneros Aktiv 84 / 91 40% 1 16.07.2027 -
Sascha Britschgi AC Milan Aktiv 120 / 120 40% 1 16.07.2027 -
Riley Owen Stevenage Aktiv 110 / 109 40% 1 30.05.2027 -
Kirill Danilin Ural Aktiv 107 / 95 40% 7 27.05.2027 -
Ekain Orobengoa Real Sociedad Aktiv 101 / 118 40% 5 27.05.2027 -
Tenton Yenne Baltika Aktiv 106 / 99 40% 4 26.05.2027 -
Lechi Sadulaev Akhmat Grozny Aktiv 134 / 129 40% 3 24.05.2027 -
Pablo García Gijón Aktiv 104 / 113 40% 4 23.05.2027 -
Đorđe Pantelić Spartak Kostroma Aktiv 97 / 110 40% 5 21.05.2027 -
Charlie Savage Reading Aktiv 114 / 113 40% 2 21.05.2027 -
André Miranda Porto Aktiv 104 / 113 40% 1 17.05.2027 -
Juan Pablo De la Reta Rayo Vallecano Aktiv 115 / 122 40% 1 13.05.2027 -
Ale García Las Palmas Aktiv 122 / 119 40% 6 11.05.2027 -
Harvey White Stevenage Aktiv 123 / 103 40% 2 09.05.2027 -
Job Ochieng Real Sociedad Aktiv 114 / 99 40% 6 07.05.2027 -
Jonathan Okoronkwo Torpedo Moscow Aktiv 101 / 117 40% 4 03.05.2027 -
Zech Medley Fleetwood Town Aktiv 95 / 97 40% 1 01.05.2027 -
Lander Astiazarán Real Sociedad Aktiv 98 / 112 40% 6 28.04.2027 -
Miloš Brnović Arsenal Tula Aktiv 107 / 101 40% 5 28.04.2027 -
Iker Pozo Rodina Aktiv 116 / 125 40% 3 26.04.2027 -
Tommaso Berti Cesena Aktiv 130 / 136 40% 3 24.04.2027 -
Ilja Vakhania Krasnodar Aktiv 113 / 122 40% 3 20.04.2027 -
Axel Frugone Athletic Bilbao Aktiv 113 / 127 40% 3 13.04.2027 -
Aldahir Pérez Tijuana Aktiv 99 / 110 40% 2 11.04.2027 -
Gonzalo Gamarra Floriana Aktiv 108 / 116 40% 5 07.04.2027 -
Ilja Berkovskiy Torpedo Moscow Aktiv 99 / 114 40% 1 25.03.2027 -
Maksim Samorodov Akhmat Grozny Aktiv 116 / 108 40% 2 23.03.2027 -
Nuri Abdokov Fakel Aktiv 108 / 98 40% 1 21.03.2027 -
Temirkan Sundukov Dinamo Makhachkala Aktiv 107 / 113 40% 2 20.03.2027 -
Mikhail Ignatov Sochi Aktiv 125 / 111 40% 2 16.03.2027 -
Vladimir Khubulov Dinamo Makhachkala Aktiv 116 / 103 40% 1 09.03.2027 -
Arsen Adamov Akhmat Grozny Aktiv 113 / 129 40% 2 06.03.2027 -
Danila Vedernikov Orenburg Aktiv 93 / 114 40% 1 06.03.2027 -
Ruslan Apekov Torpedo Moscow Aktiv 111 / 89 40% 3 03.03.2027 -
Ruslan Bezrukov Rubin Aktiv 118 / 120 40% 1 02.03.2027 -
Brendan Wiredu Plymouth Argyle Aktiv 110 / 103 40% 1 27.02.2027 -
Alan Tsaraev Arsenal Tula Aktiv 100 / 92 40% 1 21.02.2027 -
Mateo Ortale Khazar Aktiv 107 / 94 40% 2 17.02.2027 -
Dmitry Vasiljev Orenburg Aktiv 112 / 119 40% 1 14.02.2027 -
David Kokoev Yenisey Aktiv 96 / 120 40% 1 03.02.2027 -
Reda Khadra Qarabag Aktiv 130 / 119 40% 3 02.02.2027 -
Olakunle Olusegun Rostov Aktiv 122 / 124 40% 1 30.01.2027 -
Emircan Gürlük Orenburg Aktiv 113 / 113 40% 1 28.01.2027 -
Gorka Gorosabel Real Sociedad Aktiv 102 / 124 40% 2 19.01.2027 -
Alexandro Maidana Eibar Aktiv 109 / 115 40% 1 15.01.2027 -
Konstantin Shiltsov Baltika Aktiv 91 / 106 40% 1 13.01.2027 -
Danil Lipovoy Ufa Aktiv 92 / 110 40% 1 11.01.2027 -
Julián Palacios Unión de Santa Fe Aktiv 115 / 118 40% 1 07.01.2027 -
Klismahn Neftchi Aktiv 116 / 110 40% 1 06.01.2027 -
Leonel Troncoso Gimnasia La Plata Aktiv 82 / 95 40% 1 10.08.2026 -
Lautaro Quiroga Defensa y Justicia Aktiv 105 / 111 40% 1 10.08.2026 -
Valentino Massi Sarmiento Aktiv 101 / 97 40% 1 09.08.2026 -
Matías Cantero All Boys Aktiv 84 / 98 40% 1 09.08.2026 -
Demián Troya Platense Aktiv 98 / 113 40% 1 09.08.2026 -
Facundo Kalinger Huracán Aktiv 102 / 112 40% 1 08.08.2026 -
Joaquín Silva Santiago Wanderers Aktiv 83 / 87 40% 1 08.08.2026 -
Bruno Hernández Cerro Largo Aktiv 97 / 89 40% 1 07.08.2026 -
Leonardo Gómez Sarmiento Aktiv 82 / 97 40% 1 07.08.2026 -
Facundo Miño Deportivo Riestra Aktiv 122 / 129 40% 1 06.08.2026 -
Pepe Sánchez Albacete Aktiv 108 / 102 40% 1 06.08.2026 -
Felipe Coronel All Boys Aktiv 107 / 117 40% 1 06.08.2026 -
Franco Chacarelli Belgrano Aktiv 87 / 97 40% 1 05.08.2026 -
César Magallan Estudiantes de Merida Aktiv 115 / 102 40% 1 04.08.2026 -
Marcelo Torres Gimnasia La Plata Aktiv 111 / 120 40% 1 04.08.2026 -
Ramiro Ruiz Rodríguez Atlético Tucumán Aktiv 115 / 126 40% 1 04.08.2026 -
Ramón Enríquez Málaga Aktiv 108 / 118 40% 1 04.08.2026 -